Time;durP1;ratioP1;P1;durP2;ratioP2;P2;SDS_P1;SDS_P2;PMS_P1;PMS_P2;Temp;Humidity;BMP_temperature;BMP_pressure;BME280_temperature;BME280_humidity;BME280_pressure;Samples;Min_cycle;Max_cycle;Signal;HPM_P1;HPM_P2
2020/12/27 00:02:16;;;;;;;17.50;6.90;;;0.30;99.90;;;;;;5030105;28;20060;-65
2020/12/27 00:04:43;;;;;;;18.93;8.37;;;0.20;99.90;;;;;;5030491;28;20061;-66
2020/12/27 00:07:11;;;;;;;16.23;6.97;;;0.30;99.90;;;;;;5031211;28;20053;-65
2020/12/27 00:09:39;;;;;;;18.93;8.17;;;0.30;99.90;;;;;;5027847;28;20049;-65
2020/12/27 00:12:09;;;;;;;16.53;7.00;;;0.30;99.90;;;;;;5009790;28;20054;-65
2020/12/27 00:14:36;;;;;;;18.60;7.83;;;0.30;99.90;;;;;;5016314;28;20076;-66
2020/12/27 00:17:04;;;;;;;18.63;7.57;;;0.30;99.90;;;;;;5025706;28;20552;-65
2020/12/27 00:19:31;;;;;;;14.57;6.80;;;0.30;99.90;;;;;;5013334;28;20053;-65
2020/12/27 00:21:57;;;;;;;16.87;7.67;;;0.20;99.90;;;;;;5020703;28;20453;-65
2020/12/27 00:24:24;;;;;;;18.37;6.97;;;0.30;99.90;;;;;;5013542;28;20049;-65
2020/12/27 00:26:51;;;;;;;21.23;7.37;;;0.20;99.90;;;;;;5018319;28;20049;-65
2020/12/27 00:29:19;;;;;;;17.80;7.60;;;0.20;99.90;;;;;;5026133;28;20080;-65
2020/12/27 00:31:48;;;;;;;15.33;6.87;;;0.30;99.90;;;;;;5020910;28;20798;-65
2020/12/27 00:34:15;;;;;;;16.33;6.87;;;0.20;99.90;;;;;;5020707;28;20045;-65
2020/12/27 00:36:42;;;;;;;18.90;7.57;;;0.20;99.90;;;;;;5022569;28;20124;-65
2020/12/27 00:39:09;;;;;;;17.57;7.30;;;0.20;99.90;;;;;;5016471;28;20056;-65
2020/12/27 00:41:36;;;;;;;15.80;7.10;;;0.20;99.90;;;;;;5013304;28;20099;-65
2020/12/27 00:44:03;;;;;;;18.27;7.43;;;0.10;99.90;;;;;;5020113;28;20053;-65
2020/12/27 00:46:32;;;;;;;15.07;7.00;;;0.00;99.90;;;;;;5002427;28;20049;-65
2020/12/27 00:48:59;;;;;;;17.90;7.73;;;0.10;99.90;;;;;;5016407;28;20054;-65
2020/12/27 00:51:26;;;;;;;15.07;6.50;;;0.20;99.90;;;;;;5021250;28;20049;-64
2020/12/27 00:53:53;;;;;;;19.60;6.93;;;-0.10;99.90;;;;;;5020093;28;20418;-65
2020/12/27 00:56:20;;;;;;;32.67;8.30;;;-0.10;99.90;;;;;;5021034;28;20072;-65
2020/12/27 00:58:50;;;;;;;16.43;7.13;;;-0.10;99.90;;;;;;5016607;28;20057;-65
2020/12/27 01:01:17;;;;;;;17.27;6.40;;;-0.20;99.90;;;;;;5024201;28;20053;-65
2020/12/27 01:03:45;;;;;;;16.67;7.03;;;-0.20;99.90;;;;;;5015694;28;20050;-65
2020/12/27 01:06:12;;;;;;;15.70;6.27;;;-0.20;99.90;;;;;;5017586;28;20050;-65
2020/12/27 01:08:39;;;;;;;16.17;6.27;;;-0.20;99.90;;;;;;5011850;28;20048;-64
2020/12/27 01:11:06;;;;;;;16.87;6.60;;;-0.30;99.90;;;;;;5009642;28;20057;-65
2020/12/27 01:13:33;;;;;;;15.17;6.40;;;-0.30;99.90;;;;;;5011868;28;20046;-64
2020/12/27 01:16:00;;;;;;;17.07;6.73;;;-0.30;99.90;;;;;;5020906;28;20402;-64
2020/12/27 01:18:27;;;;;;;19.77;6.77;;;-0.40;99.90;;;;;;5022173;28;20503;-64
2020/12/27 01:20:55;;;;;;;16.33;6.57;;;-0.30;99.90;;;;;;5022456;28;20056;-65
2020/12/27 01:23:21;;;;;;;16.90;6.93;;;-0.40;99.90;;;;;;5025404;28;20061;-65
2020/12/27 01:25:49;;;;;;;15.80;6.90;;;-0.30;99.90;;;;;;5020596;28;20061;-64
2020/12/27 01:28:16;;;;;;;14.30;5.70;;;-0.40;99.90;;;;;;5021012;28;20120;-63
2020/12/27 01:30:44;;;;;;;16.23;7.20;;;-0.40;99.90;;;;;;5018360;28;20541;-65
2020/12/27 01:33:14;;;;;;;21.67;7.07;;;-0.40;99.90;;;;;;5025958;28;20410;-64
2020/12/27 01:35:44;;;;;;;14.47;6.13;;;-0.50;99.90;;;;;;5023401;28;20057;-64
2020/12/27 01:38:12;;;;;;;14.70;6.37;;;-0.50;99.90;;;;;;5023718;28;20061;-64
2020/12/27 01:40:39;;;;;;;17.87;5.47;;;-0.50;99.90;;;;;;5024117;28;20140;-65
2020/12/27 01:43:06;;;;;;;17.70;6.43;;;-0.50;99.90;;;;;;5025572;28;20049;-65
2020/12/27 01:45:32;;;;;;;16.40;6.97;;;-0.40;99.90;;;;;;5028751;28;20049;-65
2020/12/27 01:47:59;;;;;;;13.73;6.47;;;-0.40;99.90;;;;;;5027821;28;20046;-65
2020/12/27 01:50:26;;;;;;;17.57;6.87;;;-0.50;99.90;;;;;;5029070;28;20049;-65
2020/12/27 01:52:53;;;;;;;21.73;8.17;;;-0.50;99.90;;;;;;5027409;28;20049;-65
2020/12/27 01:55:20;;;;;;;19.53;6.77;;;-0.40;99.90;;;;;;5029176;28;20451;-65
2020/12/27 01:58:15;;;;;;;16.47;6.33;;;-0.50;99.90;;;;;;5028178;28;20049;-64
2020/12/27 02:00:42;;;;;;;15.50;6.43;;;-0.60;99.90;;;;;;5026539;28;20057;-65
2020/12/27 02:03:11;;;;;;;19.40;6.23;;;-0.60;99.90;;;;;;5027383;28;20064;-63
2020/12/27 02:05:39;;;;;;;15.77;7.40;;;-0.60;99.90;;;;;;5029350;28;20045;-65
2020/12/27 02:08:06;;;;;;;16.60;6.07;;;-0.70;99.90;;;;;;5027856;28;20050;-65
2020/12/27 02:10:34;;;;;;;18.03;6.30;;;-0.70;99.90;;;;;;5027525;28;20045;-65
2020/12/27 02:13:02;;;;;;;14.20;6.03;;;-0.80;99.90;;;;;;5027661;28;20426;-65
2020/12/27 02:15:29;;;;;;;16.83;6.33;;;-0.80;99.90;;;;;;5028105;28;20054;-65
2020/12/27 02:17:55;;;;;;;17.03;6.03;;;-0.80;99.90;;;;;;5024888;28;20041;-65
2020/12/27 02:20:22;;;;;;;14.70;6.03;;;-0.80;99.90;;;;;;5026225;28;20060;-65
2020/12/27 02:22:49;;;;;;;12.77;5.40;;;-0.80;99.90;;;;;;5028687;28;20438;-65
2020/12/27 02:25:17;;;;;;;16.03;6.87;;;-0.80;99.90;;;;;;5030033;28;20053;-64
2020/12/27 02:27:44;;;;;;;16.40;6.50;;;-0.80;99.90;;;;;;5018093;28;20052;-65
2020/12/27 02:30:11;;;;;;;13.60;5.50;;;-0.90;99.90;;;;;;5025780;28;20049;-65
2020/12/27 02:32:38;;;;;;;14.60;6.37;;;-0.90;99.90;;;;;;5027073;28;20055;-64
2020/12/27 02:35:05;;;;;;;14.27;5.63;;;-0.90;99.90;;;;;;5030263;28;20450;-65
2020/12/27 02:37:32;;;;;;;13.10;5.53;;;-1.00;99.90;;;;;;5024941;28;20057;-65
2020/12/27 02:39:59;;;;;;;16.90;6.57;;;-0.90;99.90;;;;;;5030475;28;20556;-65
2020/12/27 02:42:27;;;;;;;14.07;5.97;;;-1.00;99.90;;;;;;5031151;28;20053;-63
2020/12/27 02:45:10;;;;;;;15.20;5.93;;;-1.00;99.90;;;;;;5028958;28;20052;-65
2020/12/27 02:47:38;;;;;;;15.37;6.60;;;-1.00;99.90;;;;;;5030896;28;20053;-65
2020/12/27 02:50:08;;;;;;;12.10;5.43;;;-0.90;99.90;;;;;;5030682;28;20060;-65
2020/12/27 02:52:35;;;;;;;18.30;5.90;;;-0.90;99.90;;;;;;5025925;28;20510;-65
2020/12/27 02:55:03;;;;;;;14.37;5.97;;;-1.00;99.90;;;;;;5030442;28;20515;-64
2020/12/27 02:57:30;;;;;;;13.27;5.37;;;-1.00;99.90;;;;;;5030835;28;20467;-64
2020/12/27 02:59:57;;;;;;;12.73;5.57;;;-1.00;99.90;;;;;;5034121;28;20053;-64
2020/12/27 03:02:24;;;;;;;15.03;6.20;;;-1.00;99.90;;;;;;5031713;28;20045;-65
2020/12/27 03:04:50;;;;;;;12.23;5.53;;;-1.10;99.90;;;;;;5030503;28;20042;-64
2020/12/27 03:07:17;;;;;;;20.13;4.73;;;-1.00;99.90;;;;;;5031037;28;20057;-64
2020/12/27 03:09:44;;;;;;;17.33;6.27;;;-1.10;99.90;;;;;;5031047;28;20060;-64
2020/12/27 03:12:10;;;;;;;13.67;5.40;;;-1.00;99.90;;;;;;5030504;28;20091;-64
2020/12/27 03:14:38;;;;;;;15.03;5.20;;;-1.10;99.90;;;;;;5030779;28;20072;-64
2020/12/27 03:17:05;;;;;;;14.70;5.20;;;-1.10;99.90;;;;;;5030498;28;20055;-64
2020/12/27 03:19:31;;;;;;;15.37;5.97;;;-1.20;99.90;;;;;;5030514;28;20056;-65
2020/12/27 03:21:58;;;;;;;12.47;5.70;;;-1.10;99.90;;;;;;5030362;28;20124;-65
2020/12/27 03:24:25;;;;;;;16.43;6.20;;;-1.00;99.90;;;;;;5030652;28;20506;-63
2020/12/27 03:26:52;;;;;;;15.60;6.30;;;-1.10;99.90;;;;;;5031247;28;20045;-65
2020/12/27 03:29:18;;;;;;;11.17;5.57;;;-1.10;99.90;;;;;;5030492;28;20041;-65
2020/12/27 03:31:46;;;;;;;12.53;5.90;;;-1.10;99.90;;;;;;5026950;28;20053;-64
2020/12/27 03:34:14;;;;;;;12.17;5.07;;;-1.10;99.90;;;;;;5023491;28;20125;-65
2020/12/27 03:36:42;;;;;;;19.87;6.00;;;-1.00;99.90;;;;;;5029651;28;20458;-64
2020/12/27 03:39:08;;;;;;;12.33;5.30;;;-1.00;99.90;;;;;;5030521;28;20103;-65
2020/12/27 03:41:35;;;;;;;11.90;4.73;;;-0.90;99.90;;;;;;5027206;28;20287;-63
2020/12/27 03:44:08;;;;;;;15.43;5.40;;;-1.00;99.90;;;;;;5019201;28;20092;-64
2020/12/27 03:46:34;;;;;;;13.70;5.87;;;-1.00;99.90;;;;;;5013631;28;20045;-65
2020/12/27 03:49:02;;;;;;;14.10;5.37;;;-1.00;99.90;;;;;;5027647;28;20409;-65
2020/12/27 03:51:29;;;;;;;14.60;5.97;;;-1.10;99.90;;;;;;5020836;28;20057;-65
2020/12/27 03:53:55;;;;;;;13.00;5.63;;;-1.10;99.90;;;;;;5026120;28;20049;-65
2020/12/27 03:56:24;;;;;;;18.43;6.10;;;-1.00;99.90;;;;;;5023669;28;20058;-64
2020/12/27 03:58:51;;;;;;;12.97;5.57;;;-1.00;99.90;;;;;;5024488;28;20441;-65
2020/12/27 04:01:17;;;;;;;16.67;6.27;;;-1.00;99.90;;;;;;5023183;28;20476;-65
2020/12/27 04:03:44;;;;;;;15.80;5.57;;;-1.00;99.90;;;;;;5023027;28;20124;-64
2020/12/27 04:06:12;;;;;;;13.63;5.77;;;-1.10;99.90;;;;;;5022050;28;20065;-64
2020/12/27 04:08:39;;;;;;;13.27;6.30;;;-1.20;99.90;;;;;;5015904;28;20053;-65
2020/12/27 04:11:06;;;;;;;15.23;5.57;;;-1.10;99.90;;;;;;5015966;28;20104;-66
2020/12/27 04:13:34;;;;;;;16.47;5.77;;;-1.20;99.90;;;;;;5017310;28;20058;-64
2020/12/27 04:16:04;;;;;;;13.73;5.00;;;-1.10;99.90;;;;;;5016350;28;20049;-65
2020/12/27 04:18:30;;;;;;;13.20;6.47;;;-1.20;99.90;;;;;;5022553;28;20062;-65
2020/12/27 04:20:57;;;;;;;15.13;6.40;;;-1.20;99.90;;;;;;5020601;28;20053;-64
2020/12/27 04:23:25;;;;;;;14.83;5.37;;;-1.20;99.90;;;;;;5024249;28;20053;-65
2020/12/27 04:25:52;;;;;;;20.00;7.67;;;-1.20;99.90;;;;;;5022749;28;20052;-65
2020/12/27 04:28:18;;;;;;;11.33;4.90;;;-1.20;99.90;;;;;;5029765;28;20042;-65
2020/12/27 04:30:45;;;;;;;15.77;5.73;;;-1.20;99.90;;;;;;5028811;28;20057;-65
2020/12/27 04:33:12;;;;;;;14.53;6.20;;;-1.20;99.90;;;;;;5029816;28;20041;-64
2020/12/27 04:35:39;;;;;;;16.53;5.23;;;-1.20;99.90;;;;;;5030800;28;20409;-64
2020/12/27 04:38:06;;;;;;;14.40;5.67;;;-1.20;99.90;;;;;;5029322;28;20053;-64
2020/12/27 04:40:34;;;;;;;13.70;6.33;;;-1.20;99.90;;;;;;5030981;28;20056;-63
2020/12/27 04:43:01;;;;;;;16.53;6.03;;;-1.20;99.90;;;;;;5029460;28;20274;-64
2020/12/27 04:45:29;;;;;;;15.20;5.90;;;-1.30;99.90;;;;;;5032050;28;20073;-64
2020/12/27 04:47:57;;;;;;;15.63;6.10;;;-1.30;99.90;;;;;;5028144;28;20057;-64
2020/12/27 04:50:26;;;;;;;13.87;6.27;;;-1.30;99.90;;;;;;5030314;28;20053;-64
2020/12/27 04:52:53;;;;;;;18.57;7.33;;;-1.30;99.90;;;;;;5030229;28;20513;-64
2020/12/27 04:55:20;;;;;;;14.20;5.80;;;-1.30;99.90;;;;;;5030517;28;20041;-65
2020/12/27 04:57:51;;;;;;;16.17;5.83;;;-1.30;99.90;;;;;;5027398;28;20046;-63
2020/12/27 05:00:21;;;;;;;15.27;5.97;;;-1.30;99.90;;;;;;5023620;28;20095;-64
2020/12/27 05:02:47;;;;;;;14.93;5.80;;;-1.30;99.90;;;;;;5030797;28;20046;-64
2020/12/27 05:05:14;;;;;;;17.23;6.33;;;-1.40;99.90;;;;;;5029075;28;20042;-64
2020/12/27 05:07:42;;;;;;;13.70;4.60;;;-1.40;99.90;;;;;;5029319;28;20053;-65
2020/12/27 05:10:09;;;;;;;12.87;5.80;;;-1.30;99.90;;;;;;5027699;28;20053;-65
2020/12/27 05:12:37;;;;;;;12.27;5.23;;;-1.30;99.90;;;;;;5027981;28;20103;-65
2020/12/27 05:15:06;;;;;;;13.43;5.80;;;-1.30;99.90;;;;;;5029502;28;20107;-64
2020/12/27 05:17:33;;;;;;;9.37;4.67;;;-1.30;99.90;;;;;;5027757;28;20079;-65
2020/12/27 05:20:08;;;;;;;13.33;5.80;;;-1.30;99.90;;;;;;5029203;28;20050;-63
2020/12/27 05:22:38;;;;;;;14.67;5.27;;;-1.30;99.90;;;;;;5028279;28;20046;-64
2020/12/27 05:25:06;;;;;;;16.37;5.67;;;-1.40;99.90;;;;;;5029490;28;20053;-65
2020/12/27 05:27:39;;;;;;;13.50;5.20;;;-1.30;99.90;;;;;;5027967;28;20056;-64
2020/12/27 05:30:07;;;;;;;13.53;5.33;;;-1.30;99.90;;;;;;5028550;28;20510;-63
2020/12/27 05:32:34;;;;;;;12.23;5.00;;;-1.30;99.90;;;;;;5028366;28;20050;-65
2020/12/27 05:35:00;;;;;;;16.53;6.47;;;-1.40;99.90;;;;;;5028458;28;20053;-64
2020/12/27 05:37:27;;;;;;;13.90;5.50;;;-1.40;99.90;;;;;;5028741;28;20060;-64
2020/12/27 05:39:54;;;;;;;16.27;5.93;;;-1.30;99.90;;;;;;5028528;28;20072;-63
2020/12/27 05:42:25;;;;;;;14.70;5.67;;;-1.40;99.90;;;;;;5028619;28;20414;-64
2020/12/27 05:44:55;;;;;;;12.63;5.10;;;-1.40;99.90;;;;;;5028893;28;20061;-65
2020/12/27 05:47:22;;;;;;;12.30;5.50;;;-1.40;99.90;;;;;;5028801;28;20049;-64
2020/12/27 05:49:49;;;;;;;14.97;6.17;;;-1.40;99.90;;;;;;5028518;28;20410;-64
2020/12/27 05:52:17;;;;;;;10.60;4.60;;;-1.50;99.90;;;;;;5027163;28;20050;-64
2020/12/27 05:54:47;;;;;;;11.63;4.03;;;-1.50;99.90;;;;;;5029356;28;20494;-64
2020/12/27 05:57:16;;;;;;;12.67;4.60;;;-1.50;99.90;;;;;;5028599;28;20371;-64
2020/12/27 05:59:45;;;;;;;13.63;6.27;;;-1.50;99.90;;;;;;5031606;28;20061;-64
2020/12/27 06:02:40;;;;;;;15.23;5.30;;;-1.50;99.90;;;;;;5032526;28;20053;-64
2020/12/27 06:05:09;;;;;;;15.53;5.57;;;-1.60;99.90;;;;;;5032294;28;20065;-64
2020/12/27 06:07:38;;;;;;;14.23;5.87;;;-1.60;99.90;;;;;;5032217;28;20052;-64
2020/12/27 06:10:13;;;;;;;14.00;4.80;;;-1.60;99.90;;;;;;5032149;28;20060;-62
2020/12/27 06:13:21;;;;;;;10.17;4.73;;;-1.50;99.90;;;;;;5032434;28;20618;-64
2020/12/27 06:15:54;;;;;;;;;;;-1.60;99.90;;;;;;5031142;28;20053;-64
2020/12/27 06:18:26;;;;;;;12.93;5.73;;;-1.50;99.90;;;;;;5032498;28;19928;-65
2020/12/27 06:21:06;;;;;;;14.73;6.27;;;-1.60;99.90;;;;;;5031766;28;20490;-63
2020/12/27 06:23:34;;;;;;;12.33;5.07;;;-1.60;99.90;;;;;;5032054;28;20399;-64
2020/12/27 06:26:02;;;;;;;14.60;5.27;;;-1.60;99.90;;;;;;5032539;28;20061;-65
2020/12/27 06:28:30;;;;;;;13.67;5.83;;;-1.60;99.90;;;;;;5031452;28;20061;-65
2020/12/27 06:30:59;;;;;;;19.43;6.93;;;-1.50;99.90;;;;;;5031952;28;20395;-65
2020/12/27 06:33:30;;;;;;;13.97;6.63;;;-1.50;99.90;;;;;;5031343;28;20049;-65
2020/12/27 06:35:57;;;;;;;10.70;4.53;;;-1.50;99.90;;;;;;5031879;28;20049;-65
2020/12/27 06:38:25;;;;;;;13.53;5.63;;;-1.50;99.90;;;;;;5032011;28;20061;-64
2020/12/27 06:40:55;;;;;;;13.80;5.67;;;-1.60;99.90;;;;;;5031040;28;20418;-64
2020/12/27 06:43:24;;;;;;;13.53;5.60;;;-1.40;99.90;;;;;;5031977;28;20516;-65
2020/12/27 06:45:51;;;;;;;11.87;5.00;;;-1.40;99.90;;;;;;5031259;28;20494;-65
2020/12/27 06:48:32;;;;;;;11.23;4.80;;;-1.40;99.90;;;;;;5031983;28;20049;-65
2020/12/27 06:50:59;;;;;;;11.27;4.73;;;-1.40;99.90;;;;;;5030952;28;20410;-65
2020/12/27 06:53:42;;;;;;;12.37;5.03;;;-1.40;99.90;;;;;;5030290;28;20056;-64
2020/12/27 06:56:10;;;;;;;10.77;5.43;;;-1.40;99.90;;;;;;5031182;28;20049;-65
2020/12/27 06:58:38;;;;;;;14.00;5.20;;;-1.40;99.90;;;;;;5032099;28;20049;-65
2020/12/27 07:01:15;;;;;;;13.63;5.87;;;-1.40;99.90;;;;;;5030679;28;20057;-64
2020/12/27 07:03:45;;;;;;;12.93;5.27;;;-1.40;99.90;;;;;;5034027;28;20088;-63
2020/12/27 07:06:25;;;;;;;11.80;4.97;;;-1.40;99.90;;;;;;5032874;28;20049;-65
2020/12/27 07:08:56;;;;;;;13.23;5.83;;;-1.40;99.90;;;;;;5030156;28;20053;-65
2020/12/27 07:11:24;;;;;;;11.93;5.67;;;-1.40;99.90;;;;;;5030974;28;20060;-65
2020/12/27 07:13:55;;;;;;;13.57;5.40;;;-1.40;99.90;;;;;;5030962;28;20053;-64
2020/12/27 07:16:29;;;;;;;9.20;4.77;;;-1.40;99.90;;;;;;5031621;28;20053;-65
2020/12/27 07:19:03;;;;;;;10.03;4.17;;;-1.40;99.90;;;;;;5031211;28;20049;-65
2020/12/27 07:21:30;;;;;;;11.43;4.70;;;-1.40;99.90;;;;;;5030841;28;20050;-65
2020/12/27 07:24:18;;;;;;;10.60;5.13;;;-1.40;99.90;;;;;;5031574;28;20050;-65
2020/12/27 07:26:46;;;;;;;12.13;5.27;;;-1.40;99.90;;;;;;5029143;28;20102;-65
2020/12/27 07:29:16;;;;;;;13.27;6.37;;;-1.30;99.90;;;;;;5031401;28;20502;-64
2020/12/27 07:31:43;;;;;;;9.57;4.63;;;-1.40;99.90;;;;;;5029703;28;20057;-64
2020/12/27 07:34:13;;;;;;;9.77;4.43;;;-1.30;99.90;;;;;;5031319;28;20521;-65
2020/12/27 07:36:44;;;;;;;12.33;6.60;;;-1.30;99.90;;;;;;5029469;28;20057;-63
2020/12/27 07:39:11;;;;;;;9.57;4.80;;;-1.30;99.90;;;;;;5031142;28;20077;-66
2020/12/27 07:41:40;;;;;;;10.97;3.80;;;-1.30;99.90;;;;;;5029518;28;20053;-65
2020/12/27 07:44:12;;;;;;;9.27;4.30;;;-1.30;99.90;;;;;;5030331;28;20528;-65
2020/12/27 07:46:38;;;;;;;11.90;4.63;;;-1.20;99.90;;;;;;5030962;28;20057;-65
2020/12/27 07:49:08;;;;;;;10.10;5.13;;;-1.20;99.90;;;;;;5029511;28;20056;-65
2020/12/27 07:51:36;;;;;;;12.73;4.77;;;-1.20;99.90;;;;;;5030037;28;20115;-65
2020/12/27 07:54:03;;;;;;;11.90;5.97;;;-1.20;99.90;;;;;;5030428;28;20112;-65
2020/12/27 07:56:31;;;;;;;11.30;5.07;;;-1.10;99.90;;;;;;5029812;28;20053;-65
2020/12/27 07:58:58;;;;;;;12.57;4.70;;;-1.10;99.90;;;;;;5030753;28;20083;-65
2020/12/27 08:01:27;;;;;;;9.87;4.90;;;-1.10;99.90;;;;;;5029554;28;20103;-63
2020/12/27 08:03:55;;;;;;;10.87;4.63;;;-1.00;99.90;;;;;;5030470;28;20059;-64
2020/12/27 08:06:23;;;;;;;10.80;5.03;;;-1.10;99.90;;;;;;5009946;28;20061;-65
2020/12/27 08:09:00;;;;;;;11.27;4.60;;;-1.00;99.90;;;;;;5011045;28;20053;-65
2020/12/27 08:11:27;;;;;;;8.65;4.00;;;-1.00;99.90;;;;;;5009650;28;20045;-65
2020/12/27 08:13:56;;;;;;;13.03;5.37;;;-1.00;99.90;;;;;;5010852;28;20052;-65
2020/12/27 08:16:24;;;;;;;9.63;4.83;;;-1.00;99.90;;;;;;5010498;28;20686;-65
2020/12/27 08:19:05;;;;;;;7.20;3.23;;;-1.00;99.90;;;;;;5010247;28;20065;-65
2020/12/27 08:21:35;;;;;;;11.07;5.27;;;-1.00;99.90;;;;;;5009648;28;20639;-63
2020/12/27 08:24:04;;;;;;;10.70;4.77;;;-1.00;99.90;;;;;;5010031;28;20108;-65
2020/12/27 08:26:32;;;;;;;11.00;4.50;;;-0.90;99.90;;;;;;5010955;28;20520;-65
2020/12/27 08:29:09;;;;;;;9.13;3.67;;;-0.90;99.90;;;;;;5009505;28;20057;-65
2020/12/27 08:31:39;;;;;;;8.33;4.00;;;-0.90;99.90;;;;;;5010269;28;20506;-65
2020/12/27 08:34:10;;;;;;;9.40;3.73;;;-0.90;99.90;;;;;;5009827;28;20057;-63
2020/12/27 08:36:39;;;;;;;14.50;4.43;;;-0.90;99.90;;;;;;5024264;28;20046;-65
2020/12/27 08:39:25;;;;;;;8.77;4.03;;;-0.90;99.90;;;;;;5028576;28;20524;-65
2020/12/27 08:42:03;;;;;;;11.10;4.30;;;-0.90;99.90;;;;;;5028648;28;20053;-64
2020/12/27 08:44:44;;;;;;;7.20;3.13;;;-0.90;99.90;;;;;;5016427;28;20135;-65
2020/12/27 08:47:34;;;;;;;8.70;3.63;;;-0.90;99.90;;;;;;5017550;28;20077;-65
2020/12/27 08:50:07;;;;;;;7.03;3.50;;;-0.90;99.90;;;;;;5026002;28;20102;-65
2020/12/27 08:52:34;;;;;;;10.37;4.60;;;-0.90;99.90;;;;;;5021954;28;20053;-65
2020/12/27 08:55:04;;;;;;;8.63;4.30;;;-0.80;99.90;;;;;;5019501;28;20049;-65
2020/12/27 08:57:31;;;;;;;12.30;4.70;;;-0.80;99.90;;;;;;5023641;28;20095;-65
2020/12/27 09:00:06;;;;;;;9.50;4.40;;;-0.80;99.90;;;;;;5012708;28;20108;-64
2020/12/27 09:02:33;;;;;;;9.07;4.47;;;-0.80;99.90;;;;;;5023325;28;20057;-65
2020/12/27 09:05:08;;;;;;;6.70;3.17;;;-0.70;99.90;;;;;;5020442;28;20049;-65
2020/12/27 09:07:36;;;;;;;10.90;4.90;;;-0.70;99.90;;;;;;5015859;28;20057;-65
2020/12/27 09:10:09;;;;;;;8.07;4.00;;;-0.60;99.90;;;;;;5011111;28;20069;-65
2020/12/27 09:12:36;;;;;;;10.20;3.63;;;-0.60;99.90;;;;;;5022664;28;20053;-64
2020/12/27 09:15:20;;;;;;;12.03;4.43;;;-0.60;99.90;;;;;;5019882;28;20061;-65
2020/12/27 09:17:53;;;;;;;7.53;3.50;;;-0.60;99.90;;;;;;5012651;28;20057;-65
2020/12/27 09:20:22;;;;;;;11.03;4.33;;;-0.60;99.90;;;;;;5024402;28;20050;-65
2020/12/27 09:22:49;;;;;;;10.53;4.07;;;-0.60;99.90;;;;;;5017208;28;20793;-65
2020/12/27 09:25:18;;;;;;;11.10;3.10;;;-0.50;99.90;;;;;;5029428;28;20045;-65
2020/12/27 09:27:49;;;;;;;5.53;2.60;;;-0.40;99.90;;;;;;5013042;28;20046;-65
2020/12/27 09:30:17;;;;;;;8.73;3.80;;;-0.40;99.90;;;;;;5010873;28;20132;-65
2020/12/27 09:32:44;;;;;;;11.90;3.47;;;-0.40;99.90;;;;;;5017504;28;20054;-64
2020/12/27 09:35:18;;;;;;;9.00;4.20;;;-0.50;99.90;;;;;;5021402;28;20050;-65
2020/12/27 09:37:44;;;;;;;6.53;3.17;;;-0.50;99.90;;;;;;5028698;28;20053;-65
2020/12/27 09:40:11;;;;;;;8.90;3.40;;;-0.40;99.90;;;;;;5028663;28;20050;-64
2020/12/27 09:42:39;;;;;;;7.70;3.97;;;-0.30;99.90;;;;;;5020267;28;20050;-65
2020/12/27 09:45:21;;;;;;;7.53;3.10;;;-0.30;99.90;;;;;;5021458;28;20054;-65
2020/12/27 09:47:53;;;;;;;10.00;4.23;;;-0.10;99.90;;;;;;5028423;28;20055;-66
2020/12/27 09:50:32;;;;;;;6.73;3.57;;;0.10;99.90;;;;;;5025735;28;20057;-69
2020/12/27 09:52:59;;;;;;;9.97;3.90;;;0.20;99.90;;;;;;5033004;28;20099;-69
2020/12/27 09:55:27;;;;;;;9.17;4.07;;;0.40;99.90;;;;;;5019448;28;20053;-70
2020/12/27 09:57:54;;;;;;;7.07;3.17;;;0.50;99.90;;;;;;5018282;28;20053;-70
2020/12/27 10:00:22;;;;;;;7.33;3.40;;;0.60;99.90;;;;;;5027812;28;20042;-69
2020/12/27 10:02:49;;;;;;;8.33;3.67;;;0.70;99.90;;;;;;5020114;28;20045;-71
2020/12/27 10:05:16;;;;;;;8.23;3.63;;;0.90;99.90;;;;;;5020664;28;20046;-68
2020/12/27 10:07:46;;;;;;;8.10;3.53;;;1.10;99.90;;;;;;5028469;28;20084;-67
2020/12/27 10:10:13;;;;;;;11.97;4.17;;;1.20;99.90;;;;;;5028179;28;20053;-68
2020/12/27 10:12:40;;;;;;;7.10;2.93;;;1.00;99.90;;;;;;5025336;28;20961;-68
2020/12/27 10:15:09;;;;;;;8.80;3.47;;;0.70;99.90;;;;;;5023916;28;20095;-67
2020/12/27 10:17:36;;;;;;;7.00;2.93;;;0.60;99.90;;;;;;5018735;28;20050;-68
2020/12/27 10:20:05;;;;;;;7.60;3.20;;;0.50;99.90;;;;;;5029327;28;20057;-67
2020/12/27 10:22:32;;;;;;;7.67;2.90;;;0.40;99.90;;;;;;5020233;28;20490;-68
2020/12/27 10:24:58;;;;;;;12.33;3.97;;;0.40;99.90;;;;;;5023118;28;20050;-64
2020/12/27 10:27:25;;;;;;;7.83;3.33;;;0.40;99.90;;;;;;5025296;28;20057;-65
2020/12/27 10:29:51;;;;;;;8.33;3.27;;;0.50;99.90;;;;;;5015609;28;20499;-65
2020/12/27 10:32:19;;;;;;;9.97;3.70;;;0.60;99.90;;;;;;5027118;28;20411;-64
2020/12/27 10:34:46;;;;;;;8.77;3.90;;;0.60;99.90;;;;;;5020534;28;20414;-64
2020/12/27 10:37:12;;;;;;;8.13;2.80;;;0.70;99.90;;;;;;5020491;28;20046;-65
2020/12/27 10:39:39;;;;;;;10.10;3.33;;;0.70;99.90;;;;;;5028569;28;20099;-63
2020/12/27 10:42:06;;;;;;;6.27;3.13;;;0.60;99.90;;;;;;5015084;28;20045;-65
2020/12/27 10:44:33;;;;;;;8.00;3.33;;;0.80;99.90;;;;;;5023798;28;20046;-63
2020/12/27 10:46:59;;;;;;;10.50;4.63;;;0.70;99.90;;;;;;5021892;28;20049;-64
2020/12/27 10:49:27;;;;;;;10.20;3.90;;;0.70;99.90;;;;;;5018155;28;20045;-65
2020/12/27 10:51:54;;;;;;;11.67;3.83;;;0.80;99.90;;;;;;5028386;28;20053;-64
2020/12/27 10:54:21;;;;;;;8.13;3.67;;;0.80;99.90;;;;;;5016398;28;20053;-64
2020/12/27 10:56:48;;;;;;;11.73;3.60;;;0.90;99.90;;;;;;5021967;28;20137;-64
2020/12/27 10:59:16;;;;;;;7.20;3.47;;;0.90;99.90;;;;;;5024243;28;20494;-64
2020/12/27 11:01:44;;;;;;;8.53;3.20;;;1.10;99.90;;;;;;5027297;28;20406;-66
2020/12/27 11:04:11;;;;;;;9.00;3.60;;;1.20;99.90;;;;;;5015186;28;20056;-65
2020/12/27 11:06:39;;;;;;;9.77;3.70;;;1.30;99.90;;;;;;5024293;28;20045;-64
2020/12/27 11:09:06;;;;;;;10.87;4.23;;;1.30;99.90;;;;;;5011945;28;20081;-64
2020/12/27 11:11:33;;;;;;;8.30;3.87;;;1.50;99.90;;;;;;5025143;28;20414;-64
2020/12/27 11:14:00;;;;;;;10.13;3.90;;;1.60;99.90;;;;;;5013526;28;20060;-64
2020/12/27 11:16:27;;;;;;;8.47;3.87;;;1.70;99.90;;;;;;5031204;28;20548;-66
2020/12/27 11:18:53;;;;;;;8.60;3.77;;;1.60;99.90;;;;;;5021387;28;20053;-67
2020/12/27 11:21:20;;;;;;;9.83;4.17;;;1.70;99.90;;;;;;5023487;28;20049;-66
2020/12/27 11:23:48;;;;;;;10.00;3.63;;;1.70;99.90;;;;;;5015190;28;20096;-66
2020/12/27 11:26:18;;;;;;;9.47;4.20;;;1.60;99.90;;;;;;5026674;28;20053;-67
2020/12/27 11:28:45;;;;;;;9.10;3.97;;;1.60;99.90;;;;;;5017495;28;20046;-67
2020/12/27 11:31:12;;;;;;;10.40;4.33;;;1.60;99.90;;;;;;5022582;28;20111;-69
2020/12/27 11:33:39;;;;;;;10.50;4.60;;;1.60;99.90;;;;;;5015683;28;20057;-67
2020/12/27 11:36:05;;;;;;;8.23;3.60;;;1.60;99.90;;;;;;5028279;28;20056;-67
2020/12/27 11:38:32;;;;;;;8.10;3.50;;;1.70;99.90;;;;;;5024448;28;20046;-64
2020/12/27 11:41:00;;;;;;;7.27;3.17;;;1.60;99.90;;;;;;5020730;28;20049;-66
2020/12/27 11:43:27;;;;;;;8.67;3.07;;;1.50;99.90;;;;;;5016747;28;20129;-64
2020/12/27 11:45:54;;;;;;;7.90;3.50;;;1.50;99.90;;;;;;5027621;28;20058;-65
2020/12/27 11:48:20;;;;;;;8.53;3.50;;;1.60;99.90;;;;;;5014274;28;20045;-65
2020/12/27 11:50:47;;;;;;;9.10;3.27;;;1.60;99.90;;;;;;5029364;28;20394;-66
2020/12/27 11:53:14;;;;;;;8.33;3.60;;;1.60;99.90;;;;;;5017164;28;20058;-67
2020/12/27 11:55:41;;;;;;;9.33;3.03;;;1.60;99.90;;;;;;5025087;28;20053;-65
2020/12/27 11:58:08;;;;;;;8.20;3.60;;;1.50;99.90;;;;;;5013371;28;20509;-66
2020/12/27 12:00:35;;;;;;;8.33;3.47;;;1.40;99.90;;;;;;5021735;28;20449;-65
2020/12/27 12:03:02;;;;;;;7.67;3.33;;;1.50;99.90;;;;;;5020701;28;20438;-66
2020/12/27 12:05:29;;;;;;;9.57;3.37;;;1.40;99.90;;;;;;5015370;28;20503;-65
2020/12/27 12:07:56;;;;;;;7.60;3.23;;;1.40;99.90;;;;;;5026794;28;20053;-67
2020/12/27 12:10:23;;;;;;;9.30;2.87;;;1.50;99.90;;;;;;5025638;28;20441;-69
2020/12/27 12:12:49;;;;;;;7.83;3.10;;;1.40;99.90;;;;;;5021216;28;20510;-71
2020/12/27 12:15:20;;;;;;;6.80;2.80;;;1.50;99.90;;;;;;5021856;28;20060;-70
2020/12/27 12:17:46;;;;;;;6.00;2.47;;;1.30;99.90;;;;;;5029962;28;20367;-68
2020/12/27 12:22:54;;;;;;;7.77;3.03;;;1.30;99.90;;;;;;5019611;28;20051;-69
2020/12/27 12:25:21;;;;;;;7.10;2.77;;;1.40;99.90;;;;;;5023065;28;20050;-70
2020/12/27 12:27:48;;;;;;;5.47;2.60;;;1.30;99.90;;;;;;5020629;28;20049;-69
2020/12/27 12:30:14;;;;;;;4.23;1.93;;;1.40;99.90;;;;;;5025776;28;20398;-69
2020/12/27 12:32:42;;;;;;;5.30;2.27;;;1.50;99.90;;;;;;5029593;28;20118;-69
2020/12/27 12:35:08;;;;;;;6.27;2.57;;;1.30;99.90;;;;;;5025152;28;20053;-69
2020/12/27 12:37:36;;;;;;;6.83;2.40;;;1.30;99.90;;;;;;5026115;28;20045;-69
2020/12/27 12:40:04;;;;;;;3.77;2.10;;;1.40;99.90;;;;;;5026803;28;20391;-69
2020/12/27 12:42:35;;;;;;;5.70;2.43;;;1.40;99.90;;;;;;5026884;28;20387;-69
2020/12/27 12:45:02;;;;;;;6.70;2.73;;;1.40;99.90;;;;;;5024859;28;20050;-69
2020/12/27 12:47:29;;;;;;;5.57;2.60;;;1.50;99.90;;;;;;5023968;28;20055;-69
2020/12/27 12:49:56;;;;;;;6.13;2.50;;;1.60;99.90;;;;;;5018805;28;20045;-69
2020/12/27 12:52:24;;;;;;;5.87;2.47;;;1.60;99.90;;;;;;5016800;28;20049;-69
2020/12/27 12:54:51;;;;;;;6.33;3.23;;;1.60;99.90;;;;;;5013439;28;20046;-69